This is the latest recevied weather packets stored in our database for station/object WC4PEM-14. If no packets are shown the sender has not sent any weather packets the latest 10 day(s).
| Time | Temp. | Humidity | Pressure | Rain* | Wind** | Luminosity | Snow |
|---|---|---|---|---|---|---|---|
| 1777478604 | 30.56° C | 52% | 1016.6 hPa | 0 mm | - | - | - |
| 1777478491 | 30° C | 54% | 1016.7 hPa | 0 mm | - | - | - |
| 1777478304 | 30° C | 54% | 1016.7 hPa | 0 mm | - | - | - |
| 1777478277 | 30° C | 55% | 1016.7 hPa | 0 mm | - | - | - |
| 1777478004 | 30° C | 55% | 1016.7 hPa | 0 mm | - | - | - |
| 1777477838 | 29.44° C | 56% | 1016.7 hPa | 0 mm | - | - | - |
| 1777477704 | 29.44° C | 56% | 1016.7 hPa | 0 mm | - | - | - |
| 1777477610 | 29.44° C | 57% | 1016.6 hPa | 0 mm | - | - | - |
| 1777477404 | 29.44° C | 57% | 1016.6 hPa | 0 mm | - | - | - |
| 1777477225 | 28.89° C | 56% | 1016.6 hPa | 0 mm | - | - | - |
| 1777477104 | 28.89° C | 56% | 1016.6 hPa | 0 mm | - | - | - |
| 1777477011 | 28.89° C | 56% | 1016.7 hPa | 0 mm | - | - | - |
| 1777476804 | 28.89° C | 56% | 1016.7 hPa | 0 mm | - | - | - |
| 1777476633 | 28.89° C | 56% | 1016.8 hPa | 0 mm | - | - | - |
| 1777476631 | 28.33° C | 61% | 1017 hPa | 0 mm | - | - | - |
| 1777476504 | 28.89° C | 56% | 1016.8 hPa | 0 mm | - | - | - |
| 1777476375 | 28.89° C | 58% | 1016.8 hPa | 0 mm | - | - | - |
| 1777476204 | 28.89° C | 58% | 1016.8 hPa | 0 mm | - | - | - |
| 1777476112 | 28.89° C | 59% | 1016.9 hPa | 0 mm | - | - | - |
| 1777475904 | 28.89° C | 59% | 1016.9 hPa | 0 mm | - | - | - |
| 1777475810 | 28.33° C | 61% | 1017 hPa | 0 mm | - | - | - |
| 1777475604 | 28.33° C | 61% | 1017 hPa | 0 mm | - | - | - |
| 1777475482 | 28.33° C | 61% | 1017.1 hPa | 0 mm | - | - | - |
| 1777475431 | 28.33° C | 61% | 1017.1 hPa | 0 mm | - | - | - |
| 1777475304 | 28.33° C | 61% | 1017.1 hPa | 0 mm | - | - | - |
* Rain latest hour (hover to see other rain measurements)
** Current wind speed in m/s (hover to see current wind gust speed)